Time;durP1;ratioP1;P1;durP2;ratioP2;P2;SDS_P1;SDS_P2;PMS_P1;PMS_P2;Temp;Humidity;BMP_temperature;BMP_pressure;BME280_temperature;BME280_humidity;BME280_pressure;Samples;Min_cycle;Max_cycle;Signal;HPM_P1;HPM_P2
2021/01/16 00:00:36;;;;;;;8.20;4.65;;;;;;;-1.54;76.46;102701.84;6273644;28;20072;-77
2021/01/16 00:03:37;;;;;;;10.88;4.38;;;;;;;-1.47;74.80;102695.16;6274016;28;20045;-77
2021/01/16 00:06:37;;;;;;;8.23;4.82;;;;;;;-1.59;74.05;102686.25;6273559;28;20076;-77
2021/01/16 00:09:39;;;;;;;6.43;4.20;;;;;;;-1.57;76.26;102688.88;6273423;28;20418;-78
2021/01/16 00:12:40;;;;;;;11.15;5.00;;;;;;;-1.55;75.88;102679.47;6273334;28;20459;-77
2021/01/16 00:15:42;;;;;;;8.98;4.75;;;;;;;-1.55;74.63;102684.63;6273643;28;20060;-78
2021/01/16 00:18:42;;;;;;;9.40;5.30;;;;;;;-1.60;74.66;102688.78;6272642;28;20053;-78
2021/01/16 00:21:43;;;;;;;14.57;6.85;;;;;;;-1.62;76.54;102686.16;6275004;28;20119;-78
2021/01/16 00:24:45;;;;;;;13.02;5.47;;;;;;;-1.63;76.84;102686.13;6298072;28;20048;-78
2021/01/16 00:27:46;;;;;;;12.65;5.45;;;;;;;-1.59;76.48;102682.78;6297913;28;20048;-76
2021/01/16 00:30:47;;;;;;;8.73;4.43;;;;;;;-1.62;75.24;102682.72;6297560;28;20409;-78
2021/01/16 00:33:48;;;;;;;8.30;4.90;;;;;;;-1.66;72.98;102675.72;6298133;28;20552;-76
2021/01/16 00:36:49;;;;;;;12.13;4.93;;;;;;;-1.72;74.86;102671.28;6297561;28;20052;-78
2021/01/16 00:39:50;;;;;;;7.80;4.32;;;;;;;-1.65;74.68;102685.19;6297662;28;20128;-78
2021/01/16 00:42:54;;;;;;;7.18;4.50;;;;;;;-1.63;73.83;102676.69;6297662;28;20098;-78
2021/01/16 00:45:55;;;;;;;6.30;4.13;;;;;;;-1.67;73.25;102674.84;6297211;28;20535;-78
2021/01/16 00:48:55;;;;;;;11.18;4.50;;;;;;;-1.69;72.58;102673.06;6297430;28;20082;-78
2021/01/16 00:51:56;;;;;;;7.50;4.28;;;;;;;-1.67;73.88;102672.28;6296680;28;20052;-78
2021/01/16 00:54:58;;;;;;;9.20;4.75;;;;;;;-1.61;75.20;102669.88;6297585;28;20045;-77
2021/01/16 00:58:07;;;;;;;12.25;5.80;;;;;;;-1.58;75.41;102662.22;6297100;28;20505;-78
2021/01/16 01:01:08;;;;;;;7.93;4.63;;;;;;;-1.57;74.66;102661.38;6296403;28;20094;-78
2021/01/16 01:04:10;;;;;;;8.05;3.85;;;;;;;-1.63;73.17;102661.22;6297326;28;20132;-78
2021/01/16 01:07:10;;;;;;;7.78;4.40;;;;;;;-1.61;75.13;102669.00;6296918;28;20052;-78
2021/01/16 01:10:13;;;;;;;9.32;3.92;;;;;;;-1.64;73.69;102668.91;6296604;28;20141;-77
2021/01/16 01:13:14;;;;;;;7.40;4.32;;;;;;;-1.63;74.23;102668.97;6297178;28;20052;-77
2021/01/16 01:16:15;;;;;;;8.80;4.50;;;;;;;-1.64;73.95;102676.63;6296738;28;20056;-78
2021/01/16 01:19:16;;;;;;;9.45;4.40;;;;;;;-1.63;73.70;102674.13;6296570;28;20063;-77
2021/01/16 01:22:17;;;;;;;8.55;3.83;;;;;;;-1.62;73.71;102662.97;6295474;28;20437;-78
2021/01/16 01:25:19;;;;;;;10.02;4.38;;;;;;;-1.66;70.65;102668.00;6296689;28;20055;-78
2021/01/16 01:28:20;;;;;;;8.98;3.90;;;;;;;-1.66;71.36;102668.88;6296409;28;20417;-77
2021/01/16 01:31:21;;;;;;;6.85;4.03;;;;;;;-1.72;70.65;102666.13;6296102;28;20121;-77
2021/01/16 01:34:22;;;;;;;8.75;3.85;;;;;;;-1.69;70.05;102660.16;6296853;28;20044;-77
2021/01/16 01:37:23;;;;;;;7.60;4.22;;;;;;;-1.77;70.56;102653.91;6296063;28;20051;-77
2021/01/16 01:40:26;;;;;;;6.35;3.67;;;;;;;-1.80;70.32;102653.00;6296010;28;20131;-77
2021/01/16 01:43:27;;;;;;;6.97;4.10;;;;;;;-1.84;70.69;102652.88;6296544;28;20048;-77
2021/01/16 01:46:28;;;;;;;8.05;3.85;;;;;;;-1.77;70.65;102656.50;6295972;28;20045;-78
2021/01/16 01:49:29;;;;;;;11.80;4.15;;;;;;;-1.80;71.86;102657.31;6296177;28;20497;-77
2021/01/16 01:52:31;;;;;;;8.15;4.00;;;;;;;-1.79;71.47;102648.72;6295438;28;20102;-76
2021/01/16 01:55:33;;;;;;;7.13;4.32;;;;;;;-1.85;73.86;102648.56;6296178;28;20052;-77
2021/01/16 01:58:37;;;;;;;8.15;3.90;;;;;;;-1.85;74.14;102643.41;6295897;28;20156;-78
2021/01/16 02:01:48;;;;;;;12.70;4.38;;;;;;;-1.79;74.22;102638.44;6296224;28;20044;-78
2021/01/16 02:04:51;;;;;;;9.68;4.90;;;;;;;-1.72;74.58;102635.19;6296131;28;20063;-78
2021/01/16 02:07:52;;;;;;;8.80;4.80;;;;;;;-1.67;75.45;102632.75;6295928;28;20496;-78
2021/01/16 02:10:54;;;;;;;10.77;5.20;;;;;;;-1.65;74.69;102638.81;6295499;28;20045;-78
2021/01/16 02:13:54;;;;;;;11.13;4.90;;;;;;;-1.62;74.88;102631.16;6295920;28;20417;-78
2021/01/16 02:17:00;;;;;;;13.20;5.93;;;;;;;-1.80;75.28;102636.69;6295514;28;20131;-78
2021/01/16 02:20:09;;;;;;;7.80;5.28;;;;;;;-1.75;75.90;102629.94;6295092;28;20055;-75
2021/01/16 02:23:28;;;;;;;9.98;5.30;;;;;;;-1.75;76.72;102627.38;6295957;28;20068;-78
2021/01/16 02:26:53;;;;;;;9.35;5.10;;;;;;;-1.72;77.53;102634.34;6295700;28;20052;-78
2021/01/16 02:29:56;;;;;;;14.95;5.75;;;;;;;-1.72;78.20;102626.59;6295433;28;20048;-78
2021/01/16 02:32:58;;;;;;;10.05;6.03;;;;;;;-1.68;78.99;102623.25;6295944;28;20135;-78
2021/01/16 02:36:03;;;;;;;11.13;5.22;;;;;;;-1.60;77.80;102617.47;6299936;28;20067;-76
2021/01/16 02:39:11;;;;;;;11.45;5.88;;;;;;;-1.58;77.54;102613.25;6300369;28;20393;-78
2021/01/16 02:42:20;;;;;;;12.35;5.43;;;;;;;-1.56;78.11;102609.00;6300609;28;20109;-78
2021/01/16 02:45:26;;;;;;;11.77;5.60;;;;;;;-1.58;78.54;102608.09;6300601;28;20052;-76
2021/01/16 02:48:39;;;;;;;14.82;6.63;;;;;;;-1.65;79.74;102611.31;6300438;28;20056;-78
2021/01/16 02:51:46;;;;;;;11.80;5.68;;;;;;;-1.54;79.21;102606.47;6300494;28;20044;-78
2021/01/16 02:54:48;;;;;;;12.88;6.13;;;;;;;-1.51;78.58;102609.09;6300389;28;20055;-78
2021/01/16 02:57:49;;;;;;;12.55;6.47;;;;;;;-1.61;80.69;102607.13;6299905;28;20484;-80
2021/01/16 03:00:51;;;;;;;12.70;5.97;;;;;;;-1.41;79.70;102603.38;6299906;28;20080;-78
2021/01/16 03:03:52;;;;;;;17.08;6.47;;;;;;;-1.59;79.71;102603.78;6300214;28;20053;-80
2021/01/16 03:06:54;;;;;;;16.38;6.68;;;;;;;-1.48;80.45;102601.47;6299671;28;20051;-80
2021/01/16 03:09:57;;;;;;;11.57;6.25;;;;;;;-1.53;79.93;102603.06;6299833;28;20048;-80
2021/01/16 03:12:58;;;;;;;19.23;6.65;;;;;;;-1.51;79.74;102597.94;6300005;28;20081;-80
2021/01/16 03:16:06;;;;;;;13.38;6.25;;;;;;;-1.55;80.20;102590.09;6299690;28;20074;-80
2021/01/16 03:19:10;;;;;;;12.90;6.55;;;;;;;-1.56;80.23;102578.06;6290375;28;20080;-80
2021/01/16 03:22:18;;;;;;;14.48;6.78;;;;;;;-1.59;81.11;102561.63;6274738;28;20048;-79
2021/01/16 03:25:20;;;;;;;11.43;6.40;;;;;;;-1.59;83.39;102572.84;6274691;28;20056;-80
2021/01/16 03:28:21;;;;;;;12.38;7.13;;;;;;;-1.62;82.21;102577.03;6274429;28;20091;-79
2021/01/16 03:31:23;;;;;;;12.45;6.03;;;;;;;-1.64;81.12;102579.56;6274245;28;20490;-79
2021/01/16 03:34:24;;;;;;;13.02;6.03;;;;;;;-1.62;81.45;102580.47;6274455;28;20052;-80
2021/01/16 03:37:25;;;;;;;11.85;6.38;;;;;;;-1.62;81.26;102583.06;6274168;28;20060;-80
2021/01/16 03:40:25;;;;;;;12.85;6.53;;;;;;;-1.57;81.73;102578.03;6273969;28;20044;-80
2021/01/16 03:43:26;;;;;;;12.88;6.60;;;;;;;-1.55;81.69;102582.38;6274295;28;20044;-80
2021/01/16 03:46:28;;;;;;;16.92;7.10;;;;;;;-1.52;81.56;102579.00;6273164;28;20049;-80
2021/01/16 03:49:29;;;;;;;13.25;6.88;;;;;;;-1.58;81.37;102584.88;6274297;28;20052;-79
2021/01/16 03:52:33;;;;;;;14.82;7.07;;;;;;;-1.57;81.20;102585.75;6274048;28;20482;-80
2021/01/16 03:55:33;;;;;;;15.23;7.15;;;;;;;-1.50;80.57;102586.78;6274325;28;20052;-80
2021/01/16 03:58:34;;;;;;;11.40;6.72;;;;;;;-1.59;79.84;102597.72;6273886;28;20052;-80
2021/01/16 04:01:37;;;;;;;20.45;7.40;;;;;;;-1.58;80.49;102591.75;6273890;28;20467;-80
2021/01/16 04:04:38;;;;;;;12.32;6.68;;;;;;;-1.63;80.67;102595.91;6274255;28;20067;-80
2021/01/16 04:07:38;;;;;;;13.20;7.05;;;;;;;-1.67;81.68;102600.13;6273567;28;20049;-80
2021/01/16 04:10:39;;;;;;;13.38;7.28;;;;;;;-1.58;80.26;102592.63;6273427;28;20098;-80
2021/01/16 04:13:40;;;;;;;18.67;8.15;;;;;;;-1.63;82.80;102591.63;6273781;28;20061;-79
2021/01/16 04:16:42;;;;;;;13.18;6.78;;;;;;;-1.66;83.66;102591.53;6273553;28;20080;-80
2021/01/16 04:19:42;;;;;;;16.33;8.13;;;;;;;-1.63;84.75;102595.91;6273310;28;20103;-80
2021/01/16 04:22:43;;;;;;;18.10;8.18;;;;;;;-1.61;84.42;102594.25;6273810;28;20049;-80
2021/01/16 04:25:44;;;;;;;17.02;8.40;;;;;;;-1.66;83.90;102582.94;6273463;28;20053;-79
2021/01/16 04:28:45;;;;;;;14.00;7.40;;;;;;;-1.62;84.22;102585.63;6272254;28;20053;-80
2021/01/16 04:31:47;;;;;;;12.88;7.40;;;;;;;-1.67;82.89;102589.81;6273339;28;20497;-79
2021/01/16 04:34:47;;;;;;;16.90;7.88;;;;;;;-1.70;83.97;102589.72;6272801;28;20045;-78
2021/01/16 04:37:48;;;;;;;13.73;7.68;;;;;;;-1.70;83.84;102584.56;6273077;28;20103;-77
2021/01/16 04:40:50;;;;;;;14.85;7.75;;;;;;;-1.74;84.79;102579.28;6272568;28;20132;-77
2021/01/16 04:43:52;;;;;;;13.98;6.88;;;;;;;-1.74;84.12;102584.44;6273050;28;20121;-78
2021/01/16 04:46:57;;;;;;;19.30;7.00;;;;;;;-1.77;82.30;102581.75;6308442;22;20055;-73
2021/01/16 04:49:59;;;;;;;15.73;6.90;;;;;;;-1.77;83.46;102577.50;6297708;28;20044;-73
2021/01/16 04:53:05;;;;;;;13.30;6.90;;;;;;;-1.76;84.18;102574.09;6322194;28;20051;-72
2021/01/16 04:56:07;;;;;;;13.77;7.45;;;;;;;-1.72;84.46;102573.34;6317385;28;20056;-73
2021/01/16 04:59:08;;;;;;;14.05;6.90;;;;;;;-1.70;84.26;102570.81;6317707;28;20488;-73
2021/01/16 05:02:10;;;;;;;14.57;7.22;;;;;;;-1.74;83.53;102572.41;6314062;28;20058;-73
2021/01/16 05:05:12;;;;;;;13.57;6.80;;;;;;;-1.80;83.96;102561.97;6322491;28;20089;-73
2021/01/16 05:08:13;;;;;;;14.85;7.00;;;;;;;-1.77;83.81;102566.31;6321760;28;20406;-74
2021/01/16 05:11:17;;;;;;;12.32;6.78;;;;;;;-1.85;82.52;102563.53;6315467;28;20105;-73
2021/01/16 05:14:19;;;;;;;12.38;6.65;;;;;;;-1.85;82.75;102559.25;6322048;28;20135;-73
2021/01/16 05:17:21;;;;;;;13.18;6.45;;;;;;;-1.80;83.54;102551.66;6321652;28;20044;-73
2021/01/16 05:20:22;;;;;;;11.63;6.03;;;;;;;-1.80;82.37;102557.66;6319963;28;20050;-73
2021/01/16 05:23:23;;;;;;;13.85;6.20;;;;;;;-1.79;82.96;102559.41;6317641;28;20048;-72
2021/01/16 05:26:30;;;;;;;10.10;6.35;;;;;;;-1.75;81.84;102557.78;6321627;28;20063;-73
2021/01/16 05:29:34;;;;;;;13.20;6.68;;;;;;;-1.77;82.30;102549.16;6321785;28;20044;-73
2021/01/16 05:32:36;;;;;;;20.10;6.45;;;;;;;-1.80;81.64;102543.91;6321716;28;20413;-73
2021/01/16 05:35:37;;;;;;;11.38;5.93;;;;;;;-1.82;81.39;102545.56;6321933;28;20059;-73
2021/01/16 05:38:40;;;;;;;10.90;6.20;;;;;;;-1.86;79.99;102542.06;6321235;28;20056;-74
2021/01/16 05:41:43;;;;;;;16.65;6.45;;;;;;;-1.89;81.52;102534.25;6321640;28;20047;-74
2021/01/16 05:44:44;;;;;;;9.55;5.50;;;;;;;-1.89;81.24;102534.25;6321544;28;20412;-73
2021/01/16 05:47:48;;;;;;;16.63;6.57;;;;;;;-1.94;80.94;102524.66;6320824;28;20093;-74
2021/01/16 05:50:50;;;;;;;16.10;6.50;;;;;;;-1.90;82.08;102523.91;6321011;28;20044;-74
2021/01/16 05:53:52;;;;;;;13.32;7.00;;;;;;;-1.94;81.40;102520.38;6321481;28;20060;-74
2021/01/16 05:56:53;;;;;;;11.98;5.80;;;;;;;-1.89;80.95;102526.50;6320948;28;20074;-74
2021/01/16 05:59:58;;;;;;;10.23;5.88;;;;;;;-1.99;79.56;102521.94;6320965;28;20052;-74
2021/01/16 06:03:01;;;;;;;16.40;6.80;;;;;;;-1.97;80.86;102520.28;6321127;28;20510;-73
2021/01/16 06:06:02;;;;;;;11.20;6.05;;;;;;;-1.95;80.30;102521.22;6320837;28;20051;-73
2021/01/16 06:09:04;;;;;;;13.00;6.53;;;;;;;-1.95;80.55;102510.91;6320657;28;20056;-74
2021/01/16 06:12:06;;;;;;;13.65;6.95;;;;;;;-1.99;80.39;102506.50;6321105;28;20054;-74
2021/01/16 06:15:14;;;;;;;16.05;5.95;;;;;;;-1.97;80.28;102507.41;6320978;28;20052;-73
2021/01/16 06:18:20;;;;;;;13.70;5.82;;;;;;;-1.95;80.35;102517.72;6320738;28;20040;-73
2021/01/16 06:21:24;;;;;;;12.27;6.57;;;;;;;-1.89;80.80;102512.75;6320843;28;20052;-73
2021/01/16 06:24:25;;;;;;;13.43;6.15;;;;;;;-1.96;80.24;102503.97;6320912;28;20412;-74
2021/01/16 06:27:26;;;;;;;11.63;6.50;;;;;;;-2.02;79.77;102506.41;6320503;28;20402;-73
2021/01/16 06:30:31;;;;;;;13.07;6.10;;;;;;;-2.00;80.50;102506.44;6320584;28;20093;-73
2021/01/16 06:33:32;;;;;;;10.70;5.50;;;;;;;-2.01;79.07;102509.84;6320686;28;20471;-73
2021/01/16 06:36:35;;;;;;;9.98;5.75;;;;;;;-1.99;79.39;102508.22;6320629;28;20097;-74
2021/01/16 06:39:40;;;;;;;12.43;7.10;;;;;;;-1.99;78.34;102497.91;6320240;28;20051;-74
2021/01/16 06:42:41;;;;;;;18.52;6.57;;;;;;;-1.95;78.89;102494.53;6320943;28;20052;-73
2021/01/16 06:45:42;;;;;;;11.57;5.65;;;;;;;-1.90;79.82;102499.00;6320050;28;20044;-74
2021/01/16 06:48:46;;;;;;;11.90;6.03;;;;;;;-1.93;79.30;102493.75;6320264;28;20440;-74
2021/01/16 06:51:49;;;;;;;10.55;5.88;;;;;;;-1.93;79.04;102498.06;6320447;28;20055;-73
2021/01/16 06:54:52;;;;;;;12.50;6.80;;;;;;;-1.95;78.75;102489.38;6320899;28;20051;-74
2021/01/16 06:57:53;;;;;;;11.02;6.25;;;;;;;-1.93;79.17;102488.63;6320128;28;20130;-73
2021/01/16 07:00:55;;;;;;;12.05;6.47;;;;;;;-1.92;79.41;102482.63;6320412;28;20139;-74
2021/01/16 07:03:59;;;;;;;11.27;6.25;;;;;;;-1.87;79.60;102483.59;6320464;28;20054;-74
2021/01/16 07:07:03;;;;;;;11.00;5.85;;;;;;;-1.86;79.45;102484.50;6320013;28;20054;-73
2021/01/16 07:10:07;;;;;;;10.98;5.90;;;;;;;-1.87;79.33;102478.47;6320024;28;20044;-73
2021/01/16 07:13:12;;;;;;;9.52;6.03;;;;;;;-1.84;79.58;102475.09;6320219;28;20110;-74
2021/01/16 07:16:13;;;;;;;13.05;5.88;;;;;;;-1.92;79.29;102474.91;6319863;28;20063;-74
2021/01/16 07:19:19;;;;;;;9.88;5.78;;;;;;;-1.89;79.12;102474.97;6319736;28;20044;-74
2021/01/16 07:22:21;;;;;;;13.35;6.68;;;;;;;-1.86;79.20;102476.78;6323659;28;20094;-74
2021/01/16 07:25:22;;;;;;;12.52;6.13;;;;;;;-1.82;79.20;102469.16;6324575;28;20089;-74
2021/01/16 07:28:24;;;;;;;12.60;6.53;;;;;;;-1.77;79.13;102465.81;6324682;28;20145;-74
2021/01/16 07:31:26;;;;;;;10.48;5.65;;;;;;;-1.75;79.74;102467.59;6324211;28;20055;-74
2021/01/16 07:34:28;;;;;;;12.27;6.03;;;;;;;-1.72;79.24;102462.53;6324908;28;20113;-74
2021/01/16 07:37:31;;;;;;;10.48;5.43;;;;;;;-1.70;79.37;102465.13;6324155;28;20051;-73
2021/01/16 07:40:32;;;;;;;13.82;6.68;;;;;;;-1.76;79.38;102452.97;6324354;28;20089;-74
2021/01/16 07:43:47;;;;;;;13.77;6.70;;;;;;;-1.71;79.18;102459.13;6324837;28;20068;-74
2021/01/16 07:46:51;;;;;;;15.52;6.75;;;;;;;-1.77;78.57;102461.56;6323824;28;20062;-73
2021/01/16 07:49:55;;;;;;;16.63;7.35;;;;;;;-1.79;78.12;102445.16;6323815;28;20441;-74
2021/01/16 07:52:58;;;;;;;12.25;6.05;;;;;;;-1.75;78.11;102446.13;6324208;28;20455;-74
2021/01/16 07:56:04;;;;;;;11.23;5.93;;;;;;;-1.81;78.41;102450.28;6324019;28;20082;-73
2021/01/16 07:59:15;;;;;;;15.25;6.25;;;;;;;-1.78;77.15;102444.31;6323604;28;20048;-74
2021/01/16 08:02:27;;;;;;;9.70;5.43;;;;;;;-1.73;77.59;102447.88;6324092;28;20048;-74
2021/01/16 08:05:39;;;;;;;11.13;6.15;;;;;;;-1.74;79.22;102453.00;6324148;28;20489;-74
2021/01/16 08:08:55;;;;;;;13.80;7.30;;;;;;;-1.80;78.20;102439.13;6323187;28;20059;-74
2021/01/16 08:12:01;;;;;;;13.68;7.78;;;;;;;-1.75;78.25;102431.53;6324066;28;20048;-74
2021/01/16 08:15:06;;;;;;;16.10;7.05;;;;;;;-1.74;78.69;102415.22;6323621;28;20054;-74
2021/01/16 08:18:12;;;;;;;11.07;6.57;;;;;;;-1.68;78.70;102427.38;6323450;28;20056;-74
2021/01/16 08:21:15;;;;;;;13.38;6.80;;;;;;;-1.68;78.95;102424.78;6323154;28;20063;-74
2021/01/16 08:24:19;;;;;;;13.95;6.70;;;;;;;-1.65;78.14;102424.88;6323694;28;20052;-73
2021/01/16 08:27:24;;;;;;;16.10;6.97;;;;;;;-1.66;79.22;102436.03;6323201;28;20048;-74
2021/01/16 08:30:28;;;;;;;10.73;6.20;;;;;;;-1.62;78.97;102419.81;6323148;28;20058;-74
2021/01/16 08:33:33;;;;;;;14.15;6.40;;;;;;;-1.65;77.97;102412.00;6323020;28;20044;-74
2021/01/16 08:36:35;;;;;;;23.23;6.40;;;;;;;-1.69;76.60;102405.88;6323062;28;20055;-74
2021/01/16 08:39:43;;;;;;;12.77;6.65;;;;;;;-1.70;75.68;102401.56;6322802;28;20059;-74
2021/01/16 08:42:51;;;;;;;13.52;5.63;;;;;;;-1.70;76.31;102405.88;6322896;28;20048;-74
2021/01/16 08:46:05;;;;;;;11.23;5.80;;;;;;;-1.68;76.09;102412.81;6322427;28;20055;-74
2021/01/16 08:49:09;;;;;;;12.05;5.97;;;;;;;-1.66;76.86;102405.97;6322590;28;20056;-74
2021/01/16 08:52:11;;;;;;;21.80;6.72;;;;;;;-1.61;77.41;102406.06;6322880;28;20047;-75
2021/01/16 08:55:13;;;;;;;11.75;6.55;;;;;;;-1.57;77.69;102406.19;6322598;28;20051;-73
2021/01/16 08:58:14;;;;;;;14.18;6.55;;;;;;;-1.52;76.39;102390.81;6322645;28;20048;-73
2021/01/16 09:01:15;;;;;;;12.20;6.13;;;;;;;-1.47;76.76;102391.78;6321950;28;20412;-74
2021/01/16 09:04:18;;;;;;;14.75;6.85;;;;;;;-1.48;75.64;102384.91;6322509;28;20051;-74
2021/01/16 09:07:22;;;;;;;17.17;7.18;;;;;;;-1.45;76.67;102391.81;6322067;28;20059;-73
2021/01/16 09:10:25;;;;;;;18.65;7.32;;;;;;;-1.39;76.21;102397.13;6303983;28;20052;-74
2021/01/16 09:13:28;;;;;;;13.18;6.35;;;;;;;-1.36;76.27;102394.63;6297422;28;20040;-74
2021/01/16 09:16:30;;;;;;;14.48;6.82;;;;;;;-1.41;75.90;102401.38;6321899;28;20048;-73
2021/01/16 09:19:31;;;;;;;12.48;6.78;;;;;;;-1.37;76.57;102405.75;6321846;28;20059;-73
2021/01/16 09:22:33;;;;;;;13.57;7.30;;;;;;;-1.36;76.49;102404.94;6314724;28;20049;-73
2021/01/16 09:25:40;;;;;;;13.25;6.50;;;;;;;-1.37;76.52;102414.38;6302025;28;20416;-72
2021/01/16 09:28:47;;;;;;;12.15;6.72;;;;;;;-1.31;76.92;102405.91;6315680;28;20067;-71
2021/01/16 09:31:48;;;;;;;16.27;7.22;;;;;;;-1.31;77.08;102405.91;6321745;28;20050;-72
2021/01/16 09:34:48;;;;;;;16.63;7.60;;;;;;;-1.30;75.48;102402.50;6321538;28;20044;-71
2021/01/16 09:37:50;;;;;;;12.05;6.72;;;;;;;-1.22;74.73;102395.81;6315945;28;20135;-71
2021/01/16 09:40:51;;;;;;;13.23;6.72;;;;;;;-1.22;75.39;102400.09;6305722;28;20040;-72
2021/01/16 09:43:52;;;;;;;11.55;6.18;;;;;;;-1.26;73.95;102398.28;6307264;28;20056;-75
2021/01/16 09:46:53;;;;;;;16.15;6.25;;;;;;;-1.28;74.59;102387.91;6320700;28;20071;-74
2021/01/16 09:50:08;;;;;;;19.48;7.53;;;;;;;-1.31;74.11;102390.44;6317987;28;20049;-74
2021/01/16 09:53:10;;;;;;;9.98;5.43;;;;;;;-1.24;73.87;102387.16;6319008;28;20101;-75
2021/01/16 09:56:11;;;;;;;9.60;5.63;;;;;;;-1.20;73.93;102380.34;6321403;28;20516;-74
2021/01/16 09:59:15;;;;;;;11.82;5.35;;;;;;;-1.21;73.26;102378.63;6317327;28;20110;-75
2021/01/16 10:02:16;;;;;;;9.20;4.90;;;;;;;-1.15;73.46;102368.41;6307155;28;20580;-75
2021/01/16 10:05:29;;;;;;;8.80;5.13;;;;;;;-1.08;73.68;102366.00;6296164;28;20056;-75
2021/01/16 10:08:32;;;;;;;9.38;5.43;;;;;;;-1.06;74.08;102359.16;6296137;28;20139;-74
2021/01/16 10:11:42;;;;;;;10.60;5.90;;;;;;;-1.03;73.79;102366.09;6295632;28;20500;-75
2021/01/16 10:14:47;;;;;;;9.30;4.82;;;;;;;-1.00;73.60;102362.69;6311456;28;20047;-74
2021/01/16 10:17:55;;;;;;;10.73;4.93;;;;;;;-1.00;71.89;102348.06;6320800;28;20509;-74
2021/01/16 10:21:08;;;;;;;9.18;4.63;;;;;;;-0.98;72.50;102351.56;6320692;28;20063;-75
2021/01/16 10:24:17;;;;;;;11.43;5.45;;;;;;;-1.01;71.96;102351.50;6320991;28;20105;-75
2021/01/16 10:27:43;;;;;;;11.35;5.35;;;;;;;-0.94;72.91;102337.91;6314106;28;20055;-74
2021/01/16 10:30:57;;;;;;;12.52;5.38;;;;;;;-0.91;74.20;102335.38;6311237;28;20560;-73
2021/01/16 10:34:05;;;;;;;10.10;5.15;;;;;;;-0.84;74.57;102323.47;6309932;28;20500;-72
2021/01/16 10:37:10;;;;;;;9.80;4.93;;;;;;;-0.81;73.14;102318.38;6320350;28;20493;-72
2021/01/16 10:40:13;;;;;;;13.70;6.30;;;;;;;-0.74;73.50;102309.00;6316752;28;20098;-78
2021/01/16 10:43:14;;;;;;;12.18;6.35;;;;;;;-0.78;73.59;102305.50;6311222;28;20047;-72
2021/01/16 10:46:29;;;;;;;12.20;6.22;;;;;;;-0.74;72.45;102298.69;6314578;28;20050;-71
2021/01/16 10:49:30;;;;;;;10.55;5.72;;;;;;;-0.68;73.08;102293.63;6326218;22;20076;-74
2021/01/16 10:52:31;;;;;;;13.13;6.78;;;;;;;-0.63;71.12;102286.84;6295338;28;20552;-74
2021/01/16 10:55:53;;;;;;;16.92;6.95;;;;;;;-0.69;73.69;102292.75;6293536;28;20056;-75
2021/01/16 10:59:10;;;;;;;12.10;6.47;;;;;;;-0.63;74.13;102289.44;6298104;28;20052;-74
2021/01/16 11:02:12;;;;;;;15.68;6.70;;;;;;;-0.55;73.89;102286.13;6297255;28;20097;-74
2021/01/16 11:05:24;;;;;;;12.75;6.88;;;;;;;-0.56;74.31;102278.34;6299826;28;20044;-74
2021/01/16 11:08:27;;;;;;;18.45;7.47;;;;;;;-0.42;75.05;102279.47;6297989;28;20420;-73
2021/01/16 11:11:30;;;;;;;15.38;7.70;;;;;;;-0.42;75.12;102269.13;6298918;28;20040;-73
2021/01/16 11:14:33;;;;;;;20.27;8.55;;;;;;;-0.44;74.00;102257.06;6300605;28;20138;-73
2021/01/16 11:17:48;;;;;;;18.77;8.15;;;;;;;-0.46;74.54;102258.72;6299000;28;20129;-74
2021/01/16 11:20:50;;;;;;;16.33;8.43;;;;;;;-0.43;75.58;102251.03;6298089;28;20055;-73
2021/01/16 11:24:24;;;;;;;18.55;8.63;;;;;;;-0.41;75.84;102246.75;6299060;28;20044;-73
2021/01/16 11:27:27;;;;;;;15.90;7.57;;;;;;;-0.39;75.77;102250.25;6297560;28;20509;-74
2021/01/16 11:30:37;;;;;;;16.85;8.80;;;;;;;-0.35;76.01;102244.28;6298546;28;20052;-74
2021/01/16 11:33:43;;;;;;;18.70;9.23;;;;;;;-0.33;75.84;102250.34;6296948;28;20133;-74
2021/01/16 11:37:01;;;;;;;23.38;9.95;;;;;;;-0.30;77.09;102242.63;6298982;28;20413;-75
2021/01/16 11:40:21;;;;;;;19.42;9.85;;;;;;;-0.36;76.03;102243.41;6297955;28;20053;-75
2021/01/16 11:43:26;;;;;;;24.27;10.75;;;;;;;-0.31;76.33;102233.16;6297181;28;20045;-75
2021/01/16 11:46:27;;;;;;;21.15;10.02;;;;;;;-0.32;77.75;102229.72;6298353;28;20186;-75
2021/01/16 11:49:28;;;;;;;19.90;10.05;;;;;;;-0.29;77.25;102221.13;6296963;28;20059;-75
2021/01/16 11:52:33;;;;;;;25.27;11.82;;;;;;;-0.27;78.23;102222.91;6295310;28;20113;-78
2021/01/16 11:55:34;;;;;;;20.35;10.40;;;;;;;-0.18;78.47;102229.03;6297128;28;20060;-75
2021/01/16 11:58:37;;;;;;;22.88;10.93;;;;;;;-0.10;78.05;102222.25;6296988;28;20413;-76
2021/01/16 12:01:39;;;;;;;23.30;11.10;;;;;;;-0.22;77.47;102216.94;6297564;28;20398;-77
2021/01/16 12:04:44;;;;;;;22.10;10.25;;;;;;;-0.11;77.23;102202.44;6296713;28;20661;-77
2021/01/16 12:07:52;;;;;;;24.92;11.35;;;;;;;-0.26;77.53;102201.38;6297188;28;20052;-78
2021/01/16 12:10:53;;;;;;;27.10;12.63;;;;;;;-0.25;78.81;102181.59;6297709;28;20138;-75
2021/01/16 12:13:56;;;;;;;23.10;11.13;;;;;;;-0.19;79.49;102183.38;6238260;28;20112;-76
2021/01/16 12:16:57;;;;;;;21.95;11.13;;;;;;;-0.02;78.11;102176.72;6224006;28;20050;-77
2021/01/16 12:19:58;;;;;;;25.25;12.32;;;;;;;-0.10;78.81;102174.03;6223250;28;20064;-76
2021/01/16 12:23:01;;;;;;;27.33;12.27;;;;;;;-0.05;78.44;102171.50;6223580;28;20057;-76
2021/01/16 12:26:08;;;;;;;25.92;11.80;;;;;;;-0.04;79.87;102168.97;6223977;28;20050;-77
2021/01/16 12:29:22;;;;;;;22.77;11.73;;;;;;;-0.02;80.26;102158.63;6222694;28;20127;-77
2021/01/16 12:32:23;;;;;;;23.13;11.82;;;;;;;0.13;80.66;102153.66;6222321;28;20407;-77
2021/01/16 12:35:25;;;;;;;22.55;11.98;;;;;;;0.06;80.26;102151.84;6222321;28;20046;-76
2021/01/16 12:38:27;;;;;;;25.45;11.65;;;;;;;0.11;79.84;102137.28;6222744;28;20057;-77
2021/01/16 12:41:27;;;;;;;24.30;12.15;;;;;;;0.17;80.22;102150.25;6221991;28;20042;-78
2021/01/16 12:44:29;;;;;;;22.65;11.63;;;;;;;0.16;79.77;102139.91;6223056;28;20450;-77
2021/01/16 12:47:30;;;;;;;31.13;12.68;;;;;;;0.13;80.60;102132.97;6223607;28;20061;-78
2021/01/16 12:50:31;;;;;;;23.92;12.02;;;;;;;0.16;81.89;102124.41;6223169;28;20096;-78
2021/01/16 12:53:34;;;;;;;27.10;13.02;;;;;;;0.17;81.80;102128.72;6223836;28;20050;-77
2021/01/16 12:56:36;;;;;;;26.23;12.80;;;;;;;0.19;81.85;102127.91;6223470;28;20104;-79
2021/01/16 12:59:37;;;;;;;28.08;13.48;;;;;;;0.22;82.49;102121.88;6223355;28;20494;-77
2021/01/16 13:02:39;;;;;;;25.73;13.18;;;;;;;0.24;82.37;102121.06;6223087;28;20054;-78
2021/01/16 13:05:40;;;;;;;28.88;13.50;;;;;;;0.30;82.42;102122.84;6223422;28;20053;-78
2021/01/16 13:08:41;;;;;;;28.13;13.40;;;;;;;0.11;81.78;102121.75;6222386;28;20048;-77
2021/01/16 13:11:47;;;;;;;28.60;13.52;;;;;;;0.16;82.43;102119.22;6223128;28;20046;-77
2021/01/16 13:14:50;;;;;;;28.83;13.75;;;;;;;0.12;82.47;102107.13;6223231;28;20053;-78
2021/01/16 13:17:51;;;;;;;26.70;12.95;;;;;;;0.15;82.86;102102.00;6222962;28;20052;-79
2021/01/16 13:20:54;;;;;;;26.38;12.77;;;;;;;0.21;82.79;102097.75;6222520;28;20046;-78
2021/01/16 13:23:56;;;;;;;28.55;13.27;;;;;;;0.19;82.90;102094.28;6222729;28;20128;-77
2021/01/16 13:26:57;;;;;;;25.80;13.60;;;;;;;0.28;82.89;102092.66;6222801;28;20404;-73
2021/01/16 13:30:05;;;;;;;24.83;12.88;;;;;;;0.30;83.83;102088.38;6222138;28;20057;-77
2021/01/16 13:33:06;;;;;;;24.38;12.18;;;;;;;0.32;83.63;102077.19;6222706;28;20124;-78
2021/01/16 13:36:12;;;;;;;28.50;13.43;;;;;;;0.38;82.97;102084.16;6222005;28;20050;-78
2021/01/16 13:39:15;;;;;;;28.15;13.57;;;;;;;0.27;81.97;102078.84;6222401;28;20423;-78
2021/01/16 13:42:19;;;;;;;26.55;12.68;;;;;;;0.33;82.21;102071.16;6222466;28;20045;-77
2021/01/16 13:45:21;;;;;;;26.75;13.20;;;;;;;0.36;83.60;102071.19;6222563;28;20049;-78
2021/01/16 13:48:23;;;;;;;27.65;13.32;;;;;;;0.41;82.17;102069.53;6222229;28;20057;-77
2021/01/16 13:51:27;;;;;;;28.10;13.00;;;;;;;0.45;82.75;102066.09;6221807;28;20057;-78
2021/01/16 13:54:31;;;;;;;27.35;13.23;;;;;;;0.45;81.12;102058.34;6222361;28;20050;-78
2021/01/16 13:57:32;;;;;;;24.52;13.00;;;;;;;0.48;82.00;102062.69;6222432;28;20054;-79
2021/01/16 14:00:42;;;;;;;25.50;13.20;;;;;;;0.48;82.26;102065.28;6222948;28;20061;-80
2021/01/16 14:03:43;;;;;;;;;;;;;;;0.53;82.89;102057.56;6223496;28;20506;-78
2021/01/16 14:06:49;;;;;;;23.85;11.82;;;;;;;0.58;81.63;102050.69;6222070;28;19926;-78